Time;durP1;ratioP1;P1;durP2;ratioP2;P2;SDS_P1;SDS_P2;PMS_P1;PMS_P2;Temp;Humidity;BMP_temperature;BMP_pressure;BME280_temperature;BME280_humidity;BME280_pressure;Samples;Min_cycle;Max_cycle;Signal;HPM_P1;HPM_P2
2022/01/04 00:01:18;;;;;;;13.10;12.80;;;20.10;96.20;;;;;;5019809;28;20842;-50
2022/01/04 00:03:45;;;;;;;13.87;13.47;;;20.00;96.50;;;;;;5019460;28;20491;-46
2022/01/04 00:06:12;;;;;;;13.80;13.40;;;20.00;96.70;;;;;;5019770;28;20452;-48
2022/01/04 00:08:38;;;;;;;14.20;13.80;;;20.00;97.00;;;;;;5019790;28;20452;-51
2022/01/04 00:11:14;;;;;;;13.77;13.37;;;20.00;97.20;;;;;;5019804;28;20476;-51
2022/01/04 00:13:43;;;;;;;14.20;13.80;;;20.00;97.10;;;;;;5019630;28;20786;-47
2022/01/04 00:16:10;;;;;;;13.50;13.20;;;20.00;97.20;;;;;;5019903;28;20942;-49
2022/01/04 00:18:38;;;;;;;13.70;13.30;;;19.90;97.30;;;;;;5019520;28;20464;-46
2022/01/04 00:21:05;;;;;;;14.30;13.90;;;19.90;97.50;;;;;;5019521;28;20469;-49
2022/01/04 00:23:32;;;;;;;12.70;12.30;;;20.00;97.70;;;;;;5018635;28;20973;-48
2022/01/04 00:25:59;;;;;;;14.10;13.70;;;20.00;97.70;;;;;;5019355;28;20225;-47
2022/01/04 00:28:27;;;;;;;14.20;13.80;;;20.00;97.30;;;;;;5019843;28;20631;-47
2022/01/04 00:30:55;;;;;;;13.80;13.40;;;20.00;97.10;;;;;;5019689;28;20488;-48
2022/01/04 00:33:22;;;;;;;13.57;13.20;;;20.00;96.90;;;;;;5024671;28;20441;-47
2022/01/04 00:35:49;;;;;;;14.10;13.60;;;20.00;97.10;;;;;;5031297;28;20456;-47
2022/01/04 00:38:16;;;;;;;14.00;13.60;;;19.90;96.70;;;;;;5031199;28;20938;-49
2022/01/04 00:40:43;;;;;;;14.10;13.70;;;19.80;96.70;;;;;;5031415;28;20909;-50
2022/01/04 00:43:10;;;;;;;14.10;13.70;;;19.70;96.80;;;;;;5030981;28;20492;-47
2022/01/04 00:45:37;;;;;;;13.70;13.30;;;19.70;96.80;;;;;;5031112;28;20496;-48
2022/01/04 00:50:50;;;;;;;14.00;13.60;;;19.70;96.70;;;;;;5035507;28;20511;-47
2022/01/04 00:53:17;;;;;;;14.23;13.83;;;19.70;96.70;;;;;;5035160;28;20440;-47
2022/01/04 00:55:44;;;;;;;13.50;13.20;;;19.60;96.70;;;;;;5035059;28;20449;-47
2022/01/04 00:58:11;;;;;;;14.17;13.70;;;19.60;96.60;;;;;;5035169;28;20809;-50
2022/01/04 01:00:37;;;;;;;13.90;13.50;;;19.60;96.70;;;;;;5035106;28;20472;-48
2022/01/04 01:03:06;;;;;;;14.17;13.73;;;19.60;96.70;;;;;;5034918;28;20534;-47
2022/01/04 01:05:33;;;;;;;13.57;13.27;;;19.60;96.70;;;;;;5034819;28;20456;-47
2022/01/04 01:08:01;;;;;;;13.80;13.40;;;19.50;96.70;;;;;;5035095;28;20440;-48
2022/01/04 01:13:15;;;;;;;14.10;13.70;;;19.50;96.80;;;;;;5029328;28;20958;-48
2022/01/04 01:15:44;;;;;;;14.10;13.70;;;19.50;96.90;;;;;;5034633;28;20930;-47
2022/01/04 01:18:14;;;;;;;13.80;13.40;;;19.50;96.80;;;;;;5034815;28;20447;-48
2022/01/04 01:20:41;;;;;;;14.20;13.80;;;19.40;96.90;;;;;;5034809;28;20468;-47
2022/01/04 01:23:08;;;;;;;14.00;13.60;;;19.40;96.90;;;;;;5034496;28;20503;-47
2022/01/04 01:25:35;;;;;;;14.50;14.00;;;19.40;96.90;;;;;;5034422;28;20448;-48
2022/01/04 01:28:02;;;;;;;13.97;13.57;;;19.40;96.90;;;;;;5034755;28;20449;-52
2022/01/04 01:30:30;;;;;;;14.10;13.70;;;19.40;96.90;;;;;;5034419;28;21005;-47
2022/01/04 01:32:57;;;;;;;15.07;14.57;;;19.40;96.90;;;;;;5034335;28;21011;-50
2022/01/04 01:35:25;;;;;;;13.97;13.57;;;19.30;97.00;;;;;;5034676;28;20452;-47
2022/01/04 01:37:52;;;;;;;14.43;14.03;;;19.30;96.90;;;;;;5034279;28;21129;-51
2022/01/04 01:40:19;;;;;;;14.10;13.70;;;19.30;97.10;;;;;;5034335;28;20469;-48
2022/01/04 01:42:45;;;;;;;14.10;13.70;;;19.30;97.10;;;;;;5034146;28;20476;-48
2022/01/04 01:45:16;;;;;;;14.30;13.90;;;19.30;97.00;;;;;;5034383;28;20453;-52
2022/01/04 01:47:42;;;;;;;14.17;13.77;;;19.30;97.10;;;;;;5034102;28;20989;-46
2022/01/04 01:50:11;;;;;;;14.10;13.70;;;19.30;97.10;;;;;;5034290;28;20869;-49
2022/01/04 01:52:40;;;;;;;14.00;13.60;;;19.20;97.10;;;;;;5034013;28;20504;-47
2022/01/04 01:55:09;;;;;;;14.77;14.17;;;19.20;97.20;;;;;;5034199;28;20449;-49
2022/01/04 01:57:36;;;;;;;13.80;13.40;;;19.20;97.20;;;;;;5033841;28;20449;-46
2022/01/04 02:00:05;;;;;;;14.00;13.60;;;19.20;97.30;;;;;;5034109;28;20469;-48
2022/01/04 02:02:32;;;;;;;14.20;13.80;;;19.20;97.30;;;;;;5033796;28;20452;-53
2022/01/04 02:04:58;;;;;;;13.90;13.50;;;19.10;97.30;;;;;;5034028;28;20511;-50
2022/01/04 02:07:26;;;;;;;13.77;13.37;;;19.10;97.40;;;;;;5033625;28;20441;-51
2022/01/04 02:10:02;;;;;;;13.50;13.20;;;19.10;97.40;;;;;;5033658;28;20457;-52
2022/01/04 02:12:30;;;;;;;13.90;13.50;;;19.10;97.40;;;;;;5033738;28;20943;-49
2022/01/04 02:14:57;;;;;;;13.60;13.30;;;19.10;97.40;;;;;;5033964;28;20453;-51
2022/01/04 02:17:24;;;;;;;13.73;13.37;;;19.10;97.50;;;;;;5033772;28;20530;-47
2022/01/04 02:19:52;;;;;;;13.50;13.20;;;19.00;97.50;;;;;;5033768;28;20481;-48
2022/01/04 02:22:20;;;;;;;14.00;13.60;;;19.00;97.50;;;;;;5033191;28;20445;-47
2022/01/04 02:24:47;;;;;;;14.00;13.60;;;19.00;97.60;;;;;;5033589;28;20809;-50
2022/01/04 02:27:15;;;;;;;14.20;13.80;;;19.00;97.60;;;;;;5033604;28;20453;-48
2022/01/04 02:29:42;;;;;;;14.07;13.67;;;19.00;97.60;;;;;;5033544;28;20449;-50
2022/01/04 02:32:09;;;;;;;12.47;12.17;;;19.00;97.70;;;;;;5033460;28;20453;-52
2022/01/04 02:34:36;;;;;;;12.40;12.10;;;19.00;97.70;;;;;;5032924;28;20441;-48
2022/01/04 02:37:05;;;;;;;12.10;11.80;;;19.00;97.70;;;;;;5033421;28;20816;-51
2022/01/04 02:39:34;;;;;;;12.60;12.30;;;18.90;97.80;;;;;;5033278;28;20456;-53
2022/01/04 02:42:01;;;;;;;12.40;12.10;;;18.90;97.80;;;;;;5033091;28;20465;-50
2022/01/04 02:44:28;;;;;;;12.60;12.30;;;18.90;97.80;;;;;;5032704;28;20476;-49
2022/01/04 02:46:54;;;;;;;12.73;12.43;;;18.90;97.90;;;;;;5033136;28;20445;-49
2022/01/04 02:49:21;;;;;;;12.97;12.53;;;18.90;97.90;;;;;;5033109;28;20460;-48
2022/01/04 02:51:48;;;;;;;12.87;12.50;;;18.90;97.90;;;;;;5032955;28;20850;-52
2022/01/04 02:54:16;;;;;;;12.77;12.47;;;18.90;97.90;;;;;;5032758;28;20449;-49
2022/01/04 02:56:43;;;;;;;13.13;12.83;;;18.90;97.90;;;;;;5033020;28;20449;-47
2022/01/04 02:59:09;;;;;;;12.63;12.33;;;18.80;97.90;;;;;;5033002;28;20844;-47
2022/01/04 03:01:36;;;;;;;12.63;12.33;;;18.80;98.00;;;;;;5032726;28;20469;-50
2022/01/04 03:04:03;;;;;;;12.80;12.50;;;18.80;97.90;;;;;;5032555;28;20473;-47
2022/01/04 03:06:29;;;;;;;12.60;12.30;;;18.80;97.90;;;;;;5032843;28;20462;-50
2022/01/04 03:08:56;;;;;;;12.67;12.37;;;18.80;98.00;;;;;;5032863;28;20437;-47
2022/01/04 03:11:25;;;;;;;12.73;12.43;;;18.80;98.10;;;;;;5032043;28;20480;-48
2022/01/04 03:13:52;;;;;;;12.70;12.40;;;18.80;98.10;;;;;;5032245;28;20445;-49
2022/01/04 03:16:18;;;;;;;12.00;11.70;;;18.70;98.10;;;;;;5032751;28;20503;-48
2022/01/04 03:19:02;;;;;;;12.80;12.50;;;18.80;98.30;;;;;;5032602;28;20852;-47
2022/01/04 03:21:30;;;;;;;12.63;12.33;;;18.80;98.20;;;;;;5032335;28;20476;-49
2022/01/04 03:23:57;;;;;;;12.70;12.40;;;18.70;98.10;;;;;;5031967;28;21010;-47
2022/01/04 03:26:25;;;;;;;12.90;12.60;;;18.70;98.30;;;;;;5032514;28;20452;-47
2022/01/04 03:28:52;;;;;;;12.90;12.50;;;18.70;98.30;;;;;;5032447;28;20495;-48
2022/01/04 03:31:19;;;;;;;12.70;12.40;;;18.70;98.30;;;;;;5032312;28;20480;-48
2022/01/04 03:33:46;;;;;;;13.17;12.87;;;18.70;98.20;;;;;;5031788;28;20445;-50
2022/01/04 03:36:14;;;;;;;12.60;12.30;;;18.70;98.30;;;;;;5032332;28;20824;-49
2022/01/04 03:38:41;;;;;;;12.57;12.27;;;18.70;98.40;;;;;;5032007;28;20508;-50
2022/01/04 03:41:08;;;;;;;12.60;12.30;;;18.60;98.30;;;;;;5032181;28;20468;-47
2022/01/04 03:43:37;;;;;;;12.97;12.67;;;18.60;98.40;;;;;;5031815;28;20548;-47
2022/01/04 03:46:05;;;;;;;13.33;13.03;;;18.60;98.50;;;;;;5032193;28;20532;-49
2022/01/04 03:48:31;;;;;;;13.23;12.90;;;18.60;98.50;;;;;;5031577;28;20452;-51
2022/01/04 03:50:58;;;;;;;13.00;12.70;;;18.60;98.50;;;;;;5031969;28;20469;-50
2022/01/04 03:53:25;;;;;;;13.20;12.80;;;18.60;98.50;;;;;;5031831;28;20965;-50
2022/01/04 03:55:51;;;;;;;13.00;12.70;;;18.60;98.60;;;;;;5031992;28;20445;-50
2022/01/04 03:58:18;;;;;;;13.23;12.93;;;18.60;98.40;;;;;;5031646;28;20456;-47
2022/01/04 04:00:47;;;;;;;13.30;12.90;;;18.60;98.30;;;;;;5031810;28;20468;-52
2022/01/04 04:03:13;;;;;;;13.40;13.00;;;18.60;98.40;;;;;;5031476;28;20485;-48
2022/01/04 04:05:40;;;;;;;13.60;13.20;;;18.50;98.50;;;;;;5031815;28;20449;-48
2022/01/04 04:08:07;;;;;;;13.40;13.10;;;18.50;98.70;;;;;;5031517;28;20445;-48
2022/01/04 04:10:33;;;;;;;13.00;12.70;;;18.50;98.70;;;;;;5031556;28;20477;-48
2022/01/04 04:13:00;;;;;;;13.60;13.30;;;18.50;98.60;;;;;;5031557;28;20491;-47
2022/01/04 04:15:27;;;;;;;13.10;12.80;;;18.50;98.60;;;;;;5031716;28;20503;-48
2022/01/04 04:17:55;;;;;;;13.30;13.00;;;18.50;98.60;;;;;;5031523;28;20449;-47
2022/01/04 04:20:21;;;;;;;13.27;12.90;;;18.50;98.80;;;;;;5031860;28;20850;-51
2022/01/04 04:22:48;;;;;;;13.00;12.70;;;18.50;98.80;;;;;;5031389;28;20453;-50
2022/01/04 04:25:15;;;;;;;12.80;12.50;;;18.40;98.90;;;;;;5031472;28;20487;-48
2022/01/04 04:27:42;;;;;;;12.73;12.43;;;18.40;99.00;;;;;;5031226;28;20456;-48
2022/01/04 04:30:10;;;;;;;12.37;12.07;;;18.40;99.00;;;;;;5031377;28;20472;-49
2022/01/04 04:32:37;;;;;;;12.60;12.30;;;18.40;98.90;;;;;;5031135;28;20456;-52
2022/01/04 04:35:06;;;;;;;12.87;12.57;;;18.40;99.00;;;;;;5031199;28;20448;-47
2022/01/04 04:37:32;;;;;;;12.90;12.60;;;18.40;98.90;;;;;;5031474;28;20440;-47
2022/01/04 04:39:59;;;;;;;14.00;13.60;;;18.40;98.90;;;;;;5031127;28;20532;-49
2022/01/04 04:42:26;;;;;;;12.87;12.50;;;18.40;99.10;;;;;;5031203;28;20816;-50
2022/01/04 04:44:52;;;;;;;12.80;12.50;;;18.40;99.20;;;;;;5031164;28;20486;-48
2022/01/04 04:47:19;;;;;;;13.10;12.80;;;18.30;99.20;;;;;;5031228;28;20449;-50
2022/01/04 04:49:46;;;;;;;13.30;12.90;;;18.30;99.30;;;;;;5031333;28;20468;-47
2022/01/04 04:52:14;;;;;;;13.40;13.00;;;18.40;99.20;;;;;;5031126;28;20445;-51
2022/01/04 04:54:40;;;;;;;13.67;13.27;;;18.40;99.20;;;;;;5031273;28;20440;-48
2022/01/04 04:57:07;;;;;;;12.87;12.57;;;18.30;99.40;;;;;;5031032;28;20451;-48
2022/01/04 04:59:34;;;;;;;13.30;13.00;;;18.30;99.50;;;;;;5031231;28;20807;-49
2022/01/04 05:02:02;;;;;;;13.30;13.00;;;18.30;99.50;;;;;;5030866;28;20536;-48
2022/01/04 05:04:29;;;;;;;14.87;14.30;;;18.30;99.60;;;;;;5031218;28;20520;-51
2022/01/04 05:06:55;;;;;;;14.10;13.70;;;18.30;99.60;;;;;;5030945;28;20445;-47
2022/01/04 05:09:23;;;;;;;13.90;13.50;;;18.30;99.50;;;;;;5031166;28;20456;-47
2022/01/04 05:11:50;;;;;;;13.73;13.33;;;18.30;99.50;;;;;;5030740;28;20483;-48
2022/01/04 05:14:17;;;;;;;13.97;13.57;;;18.30;99.60;;;;;;5030527;28;20441;-47
2022/01/04 05:16:43;;;;;;;13.70;13.30;;;18.30;99.70;;;;;;5030944;28;20812;-48
2022/01/04 05:19:10;;;;;;;13.70;13.30;;;18.30;99.80;;;;;;5031033;28;20453;-49
2022/01/04 05:21:37;;;;;;;13.60;13.20;;;18.30;99.90;;;;;;5030672;28;20469;-48
2022/01/04 05:24:04;;;;;;;14.90;14.50;;;18.30;99.80;;;;;;5030790;28;20974;-50
2022/01/04 05:26:33;;;;;;;14.40;14.00;;;18.20;99.90;;;;;;5030962;28;20993;-49
2022/01/04 05:29:00;;;;;;;13.90;13.50;;;18.20;99.90;;;;;;5030942;28;20710;-48
2022/01/04 05:31:27;;;;;;;14.27;13.87;;;18.30;99.90;;;;;;5030698;28;20472;-48
2022/01/04 05:33:54;;;;;;;14.27;13.87;;;18.30;99.90;;;;;;5030941;28;20445;-48
2022/01/04 05:36:20;;;;;;;14.30;13.90;;;18.30;99.90;;;;;;5034626;28;20729;-47
2022/01/04 05:38:48;;;;;;;14.20;13.80;;;18.30;99.90;;;;;;5034480;28;20449;-48
2022/01/04 05:41:15;;;;;;;13.70;13.30;;;18.20;99.90;;;;;;5034307;28;20469;-47
2022/01/04 05:43:43;;;;;;;13.97;13.57;;;18.30;99.90;;;;;;5033676;28;20444;-48
2022/01/04 05:46:10;;;;;;;14.10;13.70;;;18.20;99.90;;;;;;5034099;28;20822;-51
2022/01/04 05:48:36;;;;;;;14.17;13.77;;;18.30;99.90;;;;;;5034277;28;20453;-48
2022/01/04 05:51:03;;;;;;;14.10;13.70;;;18.20;99.90;;;;;;5034374;28;20469;-47
2022/01/04 05:53:30;;;;;;;15.00;14.50;;;18.60;99.90;;;;;;5033743;28;20456;-47
2022/01/04 05:55:56;;;;;;;14.17;13.77;;;19.20;99.70;;;;;;5030364;28;20456;-48
2022/01/04 05:58:23;;;;;;;13.70;13.30;;;19.50;98.20;;;;;;5022411;28;20455;-45
2022/01/04 06:00:51;;;;;;;14.33;13.93;;;19.90;97.30;;;;;;5021957;28;20469;-46
2022/01/04 06:03:18;;;;;;;14.73;14.33;;;20.20;96.20;;;;;;5021492;28;20448;-47
2022/01/04 06:05:44;;;;;;;14.40;14.00;;;20.50;95.10;;;;;;5021941;28;20484;-46
2022/01/04 06:08:12;;;;;;;14.37;13.97;;;20.70;94.50;;;;;;5021953;28;20453;-45
2022/01/04 06:10:40;;;;;;;14.40;13.87;;;20.70;93.70;;;;;;5021788;28;20998;-47
2022/01/04 06:15:53;;;;;;;14.67;14.27;;;20.90;93.20;;;;;;5022088;28;20425;-46
2022/01/04 06:18:20;;;;;;;14.90;14.40;;;21.00;93.00;;;;;;5022222;28;20456;-44
2022/01/04 06:20:46;;;;;;;15.47;15.00;;;21.00;92.80;;;;;;5021699;28;20473;-47
2022/01/04 06:23:13;;;;;;;14.70;14.30;;;21.10;92.50;;;;;;5021352;28;20449;-48
2022/01/04 06:25:40;;;;;;;14.50;14.10;;;21.10;92.20;;;;;;5021602;28;20779;-47
2022/01/04 06:28:06;;;;;;;14.63;14.20;;;21.20;92.00;;;;;;5021719;28;20457;-48
2022/01/04 06:30:33;;;;;;;14.90;14.50;;;21.20;91.70;;;;;;5021401;28;20476;-47
2022/01/04 06:33:01;;;;;;;14.80;14.40;;;21.20;91.50;;;;;;5021260;28;20448;-49
2022/01/04 06:35:30;;;;;;;14.70;14.30;;;21.30;91.40;;;;;;5021581;28;20457;-46
2022/01/04 06:37:57;;;;;;;14.70;14.30;;;21.20;91.20;;;;;;5021820;28;20802;-49
2022/01/04 06:40:24;;;;;;;14.33;13.90;;;21.10;91.00;;;;;;5021523;28;20472;-47
2022/01/04 06:42:50;;;;;;;14.60;14.20;;;21.10;91.00;;;;;;5021306;28;20453;-47
2022/01/04 06:45:17;;;;;;;14.30;13.90;;;21.20;91.10;;;;;;5020782;28;20534;-48
2022/01/04 06:47:44;;;;;;;14.60;14.20;;;21.20;91.00;;;;;;5021068;28;20464;-48
2022/01/04 06:50:14;;;;;;;14.07;13.68;;;21.20;90.90;;;;;;5020659;28;20449;-46
2022/01/04 06:52:41;;;;;;;14.60;14.20;;;21.10;90.90;;;;;;5020841;28;20674;-46
2022/01/04 06:55:08;;;;;;;13.97;13.57;;;21.00;90.90;;;;;;5020051;28;20489;-45
2022/01/04 06:57:35;;;;;;;15.00;14.60;;;21.00;91.10;;;;;;5021175;28;20465;-46
2022/01/04 07:00:01;;;;;;;14.60;14.20;;;21.00;90.90;;;;;;5020566;28;20805;-44
2022/01/04 07:02:28;;;;;;;14.57;14.17;;;21.00;90.90;;;;;;5020747;28;20441;-49
2022/01/04 07:04:55;;;;;;;15.20;14.70;;;21.00;91.10;;;;;;5021128;28;21088;-49
2022/01/04 07:07:23;;;;;;;15.20;14.80;;;20.90;90.90;;;;;;5021012;28;20814;-48
2022/01/04 07:09:50;;;;;;;15.27;14.77;;;20.90;91.00;;;;;;5020566;28;20973;-47
2022/01/04 07:12:17;;;;;;;15.63;15.23;;;20.80;91.30;;;;;;5020682;28;20452;-47
2022/01/04 07:14:43;;;;;;;15.40;14.90;;;20.80;91.40;;;;;;5020853;28;20448;-47
2022/01/04 07:17:10;;;;;;;15.80;15.40;;;20.80;91.50;;;;;;5020868;28;20455;-48
2022/01/04 07:19:37;;;;;;;15.73;15.23;;;20.70;91.70;;;;;;5020481;28;20463;-49
2022/01/04 07:22:04;;;;;;;15.20;14.80;;;20.70;91.90;;;;;;5020324;28;20473;-47
2022/01/04 07:24:33;;;;;;;15.60;15.10;;;20.60;92.00;;;;;;5020476;28;20484;-46
2022/01/04 07:26:59;;;;;;;15.43;14.93;;;20.60;92.10;;;;;;5020797;28;20895;-49
2022/01/04 07:29:26;;;;;;;15.10;14.70;;;20.50;92.30;;;;;;5020543;28;20539;-47
2022/01/04 07:31:52;;;;;;;15.10;14.70;;;20.50;92.50;;;;;;5020085;28;20480;-48
2022/01/04 07:34:19;;;;;;;14.80;14.40;;;20.50;92.50;;;;;;5020358;28;20917;-47
2022/01/04 07:36:46;;;;;;;15.50;15.00;;;20.50;92.30;;;;;;5020248;28;20455;-45
2022/01/04 07:39:13;;;;;;;14.80;14.20;;;20.50;92.40;;;;;;5020296;28;20444;-45
2022/01/04 07:41:41;;;;;;;14.73;14.33;;;20.50;92.70;;;;;;5020012;28;21032;-48
2022/01/04 07:44:07;;;;;;;14.00;13.60;;;20.50;92.80;;;;;;5020191;28;20886;-50
2022/01/04 07:46:34;;;;;;;13.87;13.47;;;20.40;93.00;;;;;;5019665;28;20452;-47
2022/01/04 07:49:01;;;;;;;12.48;12.18;;;20.40;92.80;;;;;;5019664;28;21013;-46
2022/01/04 07:51:28;;;;;;;12.70;12.40;;;20.40;93.00;;;;;;5019225;28;21001;-49
2022/01/04 07:53:55;;;;;;;14.70;14.30;;;20.40;93.00;;;;;;5020012;28;20652;-48
2022/01/04 07:56:22;;;;;;;14.70;14.30;;;20.40;93.00;;;;;;5019630;28;21221;-47
2022/01/04 07:58:50;;;;;;;14.70;14.30;;;20.40;93.10;;;;;;5020088;28;20444;-45
2022/01/04 08:01:17;;;;;;;14.70;14.30;;;20.30;93.40;;;;;;5019855;28;20957;-47
2022/01/04 08:03:44;;;;;;;15.20;14.80;;;20.30;93.50;;;;;;5019504;28;20710;-52
2022/01/04 08:06:10;;;;;;;13.70;13.30;;;20.30;93.60;;;;;;5019297;28;20456;-46
2022/01/04 08:08:37;;;;;;;14.33;13.70;;;20.30;93.70;;;;;;5019713;28;20208;-45
2022/01/04 08:11:04;;;;;;;12.50;12.20;;;20.30;93.50;;;;;;5019668;28;20449;-48
2022/01/04 08:13:31;;;;;;;14.33;13.93;;;20.30;93.50;;;;;;5019242;28;20214;-47
2022/01/04 08:15:59;;;;;;;14.37;13.97;;;20.30;93.50;;;;;;5019909;28;20444;-50
2022/01/04 08:18:26;;;;;;;14.63;14.23;;;20.30;93.40;;;;;;5019880;28;20484;-44
2022/01/04 08:20:57;;;;;;;14.60;14.20;;;20.30;93.70;;;;;;5019577;28;20562;-49
2022/01/04 08:23:24;;;;;;;14.60;14.20;;;20.30;93.70;;;;;;5019555;28;20449;-48
2022/01/04 08:25:51;;;;;;;15.47;15.00;;;20.20;93.80;;;;;;5019723;28;21085;-49
2022/01/04 08:28:18;;;;;;;15.60;15.20;;;20.10;94.20;;;;;;5019693;28;20457;-48
2022/01/04 08:30:45;;;;;;;13.60;13.20;;;20.00;94.60;;;;;;5018623;28;20444;-49
2022/01/04 08:33:14;;;;;;;15.30;14.90;;;20.10;95.00;;;;;;5019366;28;20679;-51
2022/01/04 08:35:41;;;;;;;15.30;14.90;;;20.10;94.70;;;;;;5019784;28;20456;-48
2022/01/04 08:38:08;;;;;;;15.40;14.80;;;20.10;94.80;;;;;;5019390;28;20955;-49
2022/01/04 08:40:36;;;;;;;15.20;14.70;;;20.00;94.90;;;;;;5019388;28;20473;-52
2022/01/04 08:43:03;;;;;;;15.30;14.83;;;20.00;95.20;;;;;;5019453;28;20554;-48
2022/01/04 08:45:30;;;;;;;15.40;15.00;;;20.00;95.30;;;;;;5019236;28;20511;-49
2022/01/04 08:47:57;;;;;;;15.40;15.00;;;20.00;95.70;;;;;;5019611;28;20456;-48
2022/01/04 08:50:27;;;;;;;15.50;15.00;;;20.00;95.50;;;;;;5019477;28;20480;-48
2022/01/04 08:52:55;;;;;;;15.00;14.60;;;20.00;95.80;;;;;;5019264;28;20453;-47
2022/01/04 08:55:23;;;;;;;15.07;14.67;;;19.90;95.90;;;;;;5019531;28;20492;-46
2022/01/04 08:57:49;;;;;;;15.07;14.67;;;19.90;96.10;;;;;;5019285;28;20472;-46
2022/01/04 09:00:17;;;;;;;15.00;14.60;;;20.00;96.20;;;;;;5019345;28;20480;-47
2022/01/04 09:02:44;;;;;;;15.33;14.83;;;19.90;96.20;;;;;;5019136;28;20456;-44
2022/01/04 09:05:11;;;;;;;14.70;14.30;;;19.90;96.10;;;;;;5019358;28;20516;-48
2022/01/04 09:07:39;;;;;;;14.33;13.93;;;19.80;96.00;;;;;;5019356;28;20953;-48
2022/01/04 09:10:07;;;;;;;16.50;15.57;;;19.80;96.00;;;;;;5021618;28;20840;-51
2022/01/04 09:12:43;;;;;;;15.47;14.90;;;19.80;99.90;;;;;;5022923;28;20444;-45
2022/01/04 09:20:42;;;;;;;18.73;17.53;;;20.00;99.90;;;;;;5023146;28;20530;-45
2022/01/04 09:23:10;;;;;;;18.93;16.93;;;20.00;99.90;;;;;;5022727;28;20766;-50
2022/01/04 09:25:37;;;;;;;18.23;16.70;;;20.00;99.90;;;;;;5022827;28;20485;-46
2022/01/04 09:28:04;;;;;;;18.30;15.37;;;20.10;99.90;;;;;;5022978;28;20480;-44
2022/01/04 09:30:31;;;;;;;19.23;17.33;;;20.10;99.90;;;;;;5022708;28;20484;-47
2022/01/04 09:32:58;;;;;;;19.03;17.43;;;20.00;99.90;;;;;;5022344;28;20457;-45
2022/01/04 09:35:25;;;;;;;17.93;16.17;;;20.00;99.90;;;;;;5022685;28;20448;-47
2022/01/04 09:37:51;;;;;;;17.70;16.20;;;20.00;99.90;;;;;;5022728;28;20484;-52
2022/01/04 09:40:20;;;;;;;19.40;17.97;;;20.00;99.90;;;;;;5022600;28;20815;-50
2022/01/04 09:42:50;;;;;;;18.73;17.20;;;20.00;99.90;;;;;;5022466;28;20453;-45
2022/01/04 09:45:17;;;;;;;18.30;16.43;;;20.00;99.90;;;;;;5022402;28;21074;-49
2022/01/04 09:47:43;;;;;;;19.00;17.20;;;20.00;99.90;;;;;;5022408;28;20981;-46
2022/01/04 09:50:10;;;;;;;18.67;17.27;;;20.00;99.90;;;;;;5022202;28;20480;-47
2022/01/04 09:52:46;;;;;;;20.00;17.80;;;20.00;99.90;;;;;;5022018;28;20448;-48
2022/01/04 09:55:14;;;;;;;17.60;16.33;;;19.90;99.90;;;;;;5022178;28;20452;-47
2022/01/04 09:57:44;;;;;;;16.60;15.50;;;19.90;99.90;;;;;;5022216;28;20519;-46
2022/01/04 10:00:14;;;;;;;17.33;15.83;;;19.90;99.90;;;;;;5022144;28;20978;-49
2022/01/04 10:02:41;;;;;;;18.43;16.90;;;19.90;99.90;;;;;;5021669;28;20760;-47
2022/01/04 10:05:16;;;;;;;15.87;14.97;;;19.90;99.90;;;;;;5022205;28;20855;-51
2022/01/04 10:07:44;;;;;;;16.00;15.00;;;19.90;99.90;;;;;;5022097;28;20942;-46
2022/01/04 10:10:12;;;;;;;16.73;15.52;;;19.90;99.90;;;;;;5021269;28;20942;-49
2022/01/04 10:12:59;;;;;;;17.50;16.17;;;19.90;99.90;;;;;;5021110;28;20313;-49
2022/01/04 10:15:34;;;;;;;16.57;15.43;;;19.90;99.90;;;;;;5015946;28;20452;-47
2022/01/04 10:18:17;;;;;;;16.37;15.53;;;19.80;99.90;;;;;;5022092;28;20448;-46
2022/01/04 10:20:45;;;;;;;16.83;15.70;;;19.80;99.90;;;;;;5021462;28;21033;-45
2022/01/04 10:23:13;;;;;;;18.07;16.40;;;19.80;99.90;;;;;;5021301;28;20876;-51
2022/01/04 10:25:40;;;;;;;16.37;15.50;;;19.80;99.90;;;;;;5021727;28;20484;-49
2022/01/04 10:28:08;;;;;;;15.90;15.20;;;19.80;99.90;;;;;;5021762;28;20460;-50
2022/01/04 10:30:36;;;;;;;16.83;15.60;;;19.70;99.90;;;;;;5021576;28;20824;-50
2022/01/04 10:33:09;;;;;;;16.40;15.53;;;19.70;99.90;;;;;;5021328;28;21056;-49
2022/01/04 10:35:39;;;;;;;16.00;14.93;;;19.70;99.90;;;;;;5021787;28;20457;-48
2022/01/04 10:38:15;;;;;;;14.87;13.97;;;19.70;99.90;;;;;;5021373;28;20910;-48
2022/01/04 10:40:44;;;;;;;15.77;14.97;;;19.70;99.90;;;;;;5021180;28;20472;-48
2022/01/04 10:43:15;;;;;;;16.33;15.27;;;19.60;99.90;;;;;;5021261;28;20464;-50
2022/01/04 10:45:43;;;;;;;15.03;14.30;;;19.60;99.90;;;;;;5021383;28;20487;-47
2022/01/04 10:48:13;;;;;;;16.30;15.27;;;19.60;99.90;;;;;;5021021;28;20488;-49
2022/01/04 10:50:41;;;;;;;16.20;15.17;;;19.60;99.90;;;;;;5021167;28;20480;-46
2022/01/04 10:53:19;;;;;;;15.77;14.87;;;19.60;99.90;;;;;;5020979;28;20464;-47
2022/01/04 10:55:49;;;;;;;16.17;15.33;;;19.60;99.90;;;;;;5020637;28;20873;-48
2022/01/04 10:58:27;;;;;;;15.30;14.40;;;19.60;99.90;;;;;;5021297;28;21356;-51
2022/01/04 11:00:56;;;;;;;13.20;12.80;;;19.60;99.90;;;;;;5021097;28;20473;-52
2022/01/04 11:03:25;;;;;;;16.97;16.07;;;19.60;99.90;;;;;;5020749;28;20457;-49
2022/01/04 11:06:01;;;;;;;16.47;15.77;;;19.60;99.90;;;;;;5020607;28;20488;-52
2022/01/04 11:08:29;;;;;;;16.67;15.87;;;19.60;99.90;;;;;;5020892;28;21121;-52
2022/01/04 11:10:56;;;;;;;16.33;15.47;;;19.60;99.90;;;;;;5020609;28;20481;-49
2022/01/04 11:13:24;;;;;;;16.23;15.43;;;19.60;99.90;;;;;;5020672;28;20452;-51
2022/01/04 11:15:51;;;;;;;14.57;13.87;;;19.60;99.90;;;;;;5020640;28;20454;-51
2022/01/04 11:18:19;;;;;;;14.73;14.13;;;19.60;99.90;;;;;;5020916;28;20826;-50
2022/01/04 11:20:46;;;;;;;15.23;14.60;;;19.60;99.90;;;;;;5020876;28;20803;-52
2022/01/04 11:23:15;;;;;;;14.32;13.63;;;19.60;99.90;;;;;;5019486;28;20487;-51
2022/01/04 11:25:44;;;;;;;15.60;15.00;;;19.60;99.90;;;;;;5020630;28;20700;-51
2022/01/04 11:28:14;;;;;;;15.87;15.20;;;19.60;99.90;;;;;;5020543;28;20484;-50
2022/01/04 11:30:51;;;;;;;16.00;15.20;;;19.60;99.90;;;;;;5020348;28;20477;-52
2022/01/04 11:33:26;;;;;;;15.30;14.80;;;19.60;99.90;;;;;;5022998;28;20503;-46
2022/01/04 11:35:53;;;;;;;14.93;14.23;;;19.60;99.90;;;;;;5030475;28;20842;-45
2022/01/04 11:38:36;;;;;;;14.80;14.30;;;19.60;99.90;;;;;;5032203;28;20445;-45
2022/01/04 11:41:04;;;;;;;14.40;13.90;;;19.60;99.90;;;;;;5030670;28;20896;-46
2022/01/04 11:43:34;;;;;;;16.20;14.50;;;19.60;99.90;;;;;;5032194;28;20502;-48
2022/01/04 11:46:03;;;;;;;16.03;15.30;;;19.60;99.90;;;;;;5030412;28;21066;-45
2022/01/04 11:48:35;;;;;;;15.33;14.70;;;19.60;99.90;;;;;;5029421;28;20441;-45
2022/01/04 11:51:04;;;;;;;15.60;14.90;;;19.60;99.90;;;;;;5031493;28;20469;-45
2022/01/04 11:53:32;;;;;;;15.13;14.63;;;19.60;99.90;;;;;;5032107;28;20506;-50
2022/01/04 11:56:02;;;;;;;16.00;15.40;;;19.60;99.90;;;;;;5032071;28;20445;-45
2022/01/04 11:58:44;;;;;;;14.57;14.07;;;19.60;99.90;;;;;;5031817;28;20532;-51
2022/01/04 12:01:15;;;;;;;14.00;13.60;;;19.60;99.90;;;;;;5032195;28;20464;-47
2022/01/04 12:03:47;;;;;;;15.10;14.60;;;19.50;99.90;;;;;;5031818;28;20445;-46
2022/01/04 12:06:15;;;;;;;14.13;13.60;;;19.60;99.90;;;;;;5031400;28;20563;-49
2022/01/04 12:08:47;;;;;;;13.77;13.37;;;19.50;99.90;;;;;;5031755;28;20452;-45
2022/01/04 12:11:23;;;;;;;15.93;15.23;;;19.50;99.90;;;;;;5031426;28;20476;-45
2022/01/04 12:13:52;;;;;;;16.17;15.47;;;19.50;99.90;;;;;;5030858;28;20448;-47
2022/01/04 12:16:35;;;;;;;15.37;14.90;;;19.50;99.90;;;;;;5031787;28;20460;-50
2022/01/04 12:19:07;;;;;;;15.77;14.97;;;19.50;99.90;;;;;;5031737;28;20446;-47
2022/01/04 12:21:43;;;;;;;15.70;15.10;;;19.50;99.90;;;;;;5031569;28;20899;-50
2022/01/04 12:24:18;;;;;;;15.70;15.10;;;19.50;99.90;;;;;;5031402;28;20518;-49
2022/01/04 12:26:45;;;;;;;16.17;15.30;;;19.50;99.90;;;;;;5031826;28;20534;-43
2022/01/04 12:29:31;;;;;;;15.07;14.43;;;19.50;99.90;;;;;;5031865;28;20444;-49
2022/01/04 12:32:02;;;;;;;15.07;14.47;;;19.50;99.90;;;;;;5031793;28;20461;-44
2022/01/04 12:34:47;;;;;;;14.70;14.00;;;19.50;99.90;;;;;;5030990;28;20958;-44
2022/01/04 12:37:18;;;;;;;16.90;15.63;;;19.50;99.90;;;;;;5031145;28;20445;-44
2022/01/04 12:39:47;;;;;;;14.93;14.33;;;19.50;99.90;;;;;;5031503;28;20447;-46
2022/01/04 12:42:16;;;;;;;15.17;14.57;;;19.50;99.90;;;;;;5031211;28;20453;-49
2022/01/04 12:44:43;;;;;;;14.97;14.17;;;19.50;99.90;;;;;;5033503;28;20456;-44
2022/01/04 12:47:11;;;;;;;16.17;15.17;;;19.50;99.90;;;;;;5034940;28;20469;-44